createdAt,value
2018-08-13T00:01:38.393Z,22.86
2018-08-13T00:04:06.876Z,22.84
2018-08-13T00:06:35.684Z,22.81
2018-08-13T00:09:05.018Z,22.78
2018-08-13T00:11:33.708Z,22.73
2018-08-13T00:14:02.357Z,22.67
2018-08-13T00:16:31.003Z,22.60
2018-08-13T00:18:59.693Z,22.54
2018-08-13T00:21:28.882Z,22.49
2018-08-13T00:23:57.456Z,22.48
2018-08-13T00:26:25.966Z,22.50
2018-08-13T00:28:55.015Z,22.51
2018-08-13T00:31:23.707Z,22.51
2018-08-13T00:33:52.201Z,22.50
2018-08-13T00:36:20.967Z,22.47
2018-08-13T00:38:49.482Z,22.42
2018-08-13T00:41:18.022Z,22.34
2018-08-13T00:43:47.485Z,22.30
2018-08-13T00:46:15.981Z,22.25
2018-08-13T00:48:44.435Z,22.23
2018-08-13T00:51:13.229Z,22.24
2018-08-13T00:53:41.693Z,22.24
2018-08-13T00:56:10.232Z,22.24
2018-08-13T00:58:38.752Z,22.26
2018-08-13T01:01:07.300Z,22.25
2018-08-13T01:03:35.980Z,22.23
2018-08-13T01:06:04.849Z,22.19
2018-08-13T01:08:33.384Z,22.14
2018-08-13T01:11:01.921Z,22.11
2018-08-13T01:13:30.517Z,22.08
2018-08-13T01:15:59.650Z,22.07
2018-08-13T01:18:28.194Z,22.06
2018-08-13T01:20:56.686Z,22.03
2018-08-13T01:23:25.184Z,21.99
2018-08-13T01:25:55.034Z,21.95
2018-08-13T01:28:24.463Z,21.94
2018-08-13T01:30:53.025Z,21.91
2018-08-13T01:33:21.560Z,21.89
2018-08-13T01:35:50.068Z,21.89
2018-08-13T01:38:18.631Z,21.88
2018-08-13T01:40:47.112Z,21.84
2018-08-13T01:43:15.671Z,21.80
2018-08-13T01:45:44.300Z,21.77
2018-08-13T01:48:12.836Z,21.76
2018-08-13T01:50:41.352Z,21.75
2018-08-13T01:53:10.833Z,21.77
2018-08-13T01:55:39.588Z,21.78
2018-08-13T01:58:08.251Z,21.79
2018-08-13T02:00:36.789Z,21.79
2018-08-13T02:03:06.365Z,21.79
2018-08-13T02:05:34.869Z,21.78
2018-08-13T02:08:03.423Z,21.77
2018-08-13T02:10:32.097Z,21.76
2018-08-13T02:13:00.604Z,21.72
2018-08-13T02:15:29.332Z,21.70
2018-08-13T02:17:57.912Z,21.70
2018-08-13T02:20:26.384Z,21.68
2018-08-13T02:22:55.062Z,21.66
2018-08-13T02:25:23.538Z,21.66
2018-08-13T02:27:52.008Z,21.61
2018-08-13T02:30:20.663Z,21.57
2018-08-13T02:32:49.290Z,21.55
2018-08-13T02:35:18.810Z,21.53
2018-08-13T02:37:48.072Z,21.50
2018-08-13T02:40:16.878Z,21.48
2018-08-13T02:42:45.566Z,21.45
2018-08-13T02:45:14.282Z,21.41
2018-08-13T02:47:42.813Z,21.40
2018-08-13T02:50:12.922Z,21.37
2018-08-13T02:52:42.044Z,21.36
2018-08-13T02:55:11.647Z,21.36
2018-08-13T02:57:40.177Z,21.33
2018-08-13T03:00:10.504Z,21.31
2018-08-13T03:02:39.836Z,21.31
2018-08-13T03:05:11.051Z,21.31
2018-08-13T03:07:39.925Z,21.36
2018-08-13T03:10:11.436Z,21.41
2018-08-13T03:12:39.992Z,21.40
2018-08-13T03:15:11.181Z,21.45
2018-08-13T03:17:39.845Z,21.48
2018-08-13T03:20:09.014Z,21.53
2018-08-13T03:22:38.216Z,21.56
2018-08-13T03:25:08.877Z,21.58
2018-08-13T03:27:37.798Z,21.61
2018-08-13T03:30:09.935Z,21.64
2018-08-13T03:32:38.796Z,21.65
2018-08-13T03:35:07.772Z,21.67
2018-08-13T03:37:36.535Z,21.67
2018-08-13T03:40:07.791Z,21.68
2018-08-13T03:42:36.987Z,21.64
2018-08-13T03:45:07.297Z,21.66
2018-08-13T03:47:35.989Z,21.66
2018-08-13T03:50:05.651Z,21.65
2018-08-13T03:52:34.481Z,21.61
2018-08-13T03:55:03.012Z,21.55
2018-08-13T03:57:31.534Z,21.46
2018-08-13T04:00:00.127Z,21.39
2018-08-13T04:02:29.025Z,21.34
2018-08-13T04:04:57.721Z,21.28
2018-08-13T04:07:26.407Z,21.20
2018-08-13T04:09:55.061Z,21.15
2018-08-13T04:12:23.940Z,21.08
2018-08-13T04:14:52.502Z,21.02
2018-08-13T04:17:21.760Z,20.98
2018-08-13T04:19:51.122Z,20.93
2018-08-13T04:22:19.977Z,20.86
2018-08-13T04:24:49.261Z,20.78
2018-08-13T04:27:17.991Z,20.70
2018-08-13T04:29:46.839Z,20.68
2018-08-13T04:32:15.746Z,20.65
2018-08-13T04:34:44.739Z,20.61
2018-08-13T04:37:13.770Z,20.57
2018-08-13T04:39:42.804Z,20.51
2018-08-13T04:42:12.043Z,20.49
2018-08-13T04:44:41.438Z,20.43
2018-08-13T04:47:10.532Z,20.35
2018-08-13T04:49:39.379Z,20.35
2018-08-13T04:52:08.515Z,20.31
2018-08-13T04:54:38.081Z,20.29
2018-08-13T04:57:07.522Z,20.25
2018-08-13T04:59:36.636Z,20.25
2018-08-13T05:02:05.293Z,20.26
2018-08-13T05:04:34.345Z,20.19
2018-08-13T05:07:03.617Z,20.12
2018-08-13T05:09:32.415Z,20.10
2018-08-13T05:12:01.192Z,20.03
2018-08-13T05:14:29.822Z,20.01
2018-08-13T05:16:58.720Z,19.97
2018-08-13T05:19:33.189Z,19.95
2018-08-13T05:22:01.965Z,20.00
2018-08-13T05:24:30.548Z,20.05
2018-08-13T05:26:59.278Z,20.07
2018-08-13T05:29:27.977Z,20.06
2018-08-13T05:31:56.675Z,20.06
2018-08-13T05:34:25.821Z,20.04
2018-08-13T05:36:54.616Z,20.07
2018-08-13T05:39:23.853Z,20.08
2018-08-13T05:41:52.436Z,20.09
2018-08-13T05:44:21.201Z,20.10
2018-08-13T05:46:50.664Z,20.12
2018-08-13T05:49:19.472Z,20.12
2018-08-13T05:51:48.414Z,20.11
2018-08-13T05:54:17.482Z,20.09
2018-08-13T05:56:46.096Z,20.08
2018-08-13T05:59:14.854Z,20.06
2018-08-13T06:01:43.618Z,20.02
2018-08-13T06:04:12.346Z,19.97
2018-08-13T06:06:41.293Z,19.96
2018-08-13T06:09:12.906Z,19.94
2018-08-13T06:11:41.819Z,19.88
2018-08-13T06:14:10.753Z,19.91
2018-08-13T06:16:39.866Z,19.93
2018-08-13T06:19:08.687Z,19.96
2018-08-13T06:21:37.597Z,19.95
2018-08-13T06:24:06.376Z,19.97
2018-08-13T06:26:35.001Z,20.01
2018-08-13T06:29:04.202Z,20.03
2018-08-13T06:31:33.124Z,20.05
2018-08-13T06:34:02.257Z,20.08
2018-08-13T06:36:31.000Z,20.10
2018-08-13T06:38:59.666Z,20.12
2018-08-13T06:41:29.187Z,20.11
2018-08-13T06:43:58.567Z,20.09
2018-08-13T06:46:27.215Z,20.12
2018-08-13T06:48:55.893Z,20.09
2018-08-13T06:51:24.645Z,20.07
2018-08-13T06:53:53.477Z,20.08
2018-08-13T06:56:22.147Z,20.11
2018-08-13T06:58:50.944Z,20.16
2018-08-13T07:01:19.806Z,20.20
2018-08-13T07:03:48.631Z,20.25
2018-08-13T07:06:17.715Z,20.26
2018-08-13T07:08:46.313Z,20.24
2018-08-13T07:11:15.577Z,20.29
2018-08-13T07:13:44.331Z,20.32
2018-08-13T07:16:13.081Z,20.31
2018-08-13T07:18:41.752Z,20.32
2018-08-13T07:21:10.464Z,20.36
2018-08-13T07:23:39.154Z,20.39
2018-08-13T07:26:08.133Z,20.43
2018-08-13T07:28:37.295Z,20.46
2018-08-13T07:31:05.917Z,20.49
2018-08-13T07:33:34.717Z,20.47
2018-08-13T07:36:04.228Z,20.48
2018-08-13T07:38:33.024Z,20.50
2018-08-13T07:41:01.727Z,20.51
2018-08-13T07:43:30.337Z,20.52
2018-08-13T07:45:59.599Z,20.50
2018-08-13T07:48:28.631Z,20.49
2018-08-13T07:50:57.957Z,20.49
2018-08-13T07:53:26.582Z,20.47
2018-08-13T07:55:55.389Z,20.42
2018-08-13T07:58:24.114Z,20.44
2018-08-13T08:00:52.853Z,20.48
2018-08-13T08:03:21.717Z,20.46
2018-08-13T08:05:50.327Z,20.45
2018-08-13T08:08:19.484Z,20.39
2018-08-13T08:10:48.097Z,20.32
2018-08-13T08:13:17.055Z,20.32
2018-08-13T08:15:45.955Z,20.37
2018-08-13T08:18:14.600Z,20.37
2018-08-13T08:20:43.415Z,20.36
2018-08-13T08:23:12.136Z,20.34
2018-08-13T08:25:40.834Z,20.36
2018-08-13T08:28:09.912Z,20.38
2018-08-13T08:30:38.853Z,20.42
2018-08-13T08:33:07.680Z,20.52
2018-08-13T08:35:37.154Z,20.68
2018-08-13T08:38:06.490Z,20.82
2018-08-13T08:40:35.338Z,20.90
2018-08-13T08:43:04.586Z,20.91
2018-08-13T08:45:34.052Z,20.91
2018-08-13T08:48:02.791Z,20.98
2018-08-13T08:50:31.400Z,21.02
2018-08-13T08:53:00.345Z,21.08
2018-08-13T08:55:29.469Z,21.17
2018-08-13T08:57:58.141Z,21.27
2018-08-13T09:00:27.652Z,21.34
2018-08-13T09:02:56.488Z,21.43
2018-08-13T09:05:25.630Z,21.47
2018-08-13T09:07:54.514Z,21.51
2018-08-13T09:10:23.404Z,21.51
2018-08-13T09:12:52.453Z,21.54
2018-08-13T09:15:21.367Z,21.58
2018-08-13T09:18:01.221Z,21.65
2018-08-13T09:20:41.013Z,21.75
2018-08-13T09:23:20.827Z,21.86
2018-08-13T09:26:00.738Z,21.93
2018-08-13T09:28:40.538Z,22.02
2018-08-13T09:31:29.833Z,22.18
2018-08-13T09:34:14.725Z,22.31
2018-08-13T09:36:43.396Z,22.37
2018-08-13T09:39:12.075Z,22.41
2018-08-13T09:41:40.714Z,22.45
2018-08-13T09:44:10.075Z,22.52
2018-08-13T09:46:39.552Z,22.57
2018-08-13T09:49:09.301Z,22.59
2018-08-13T09:51:37.919Z,22.59
2018-08-13T09:54:06.619Z,22.59
2018-08-13T09:56:35.411Z,22.66
2018-08-13T09:59:04.239Z,22.65
2018-08-13T10:01:33.196Z,22.64
2018-08-13T10:04:01.716Z,22.58
2018-08-13T10:06:30.371Z,22.50
2018-08-13T10:09:05.593Z,22.42
2018-08-13T10:11:34.597Z,22.32
2018-08-13T10:14:03.977Z,22.30
2018-08-13T10:16:33.281Z,22.34
2018-08-13T10:19:02.123Z,22.42
2018-08-13T10:21:31.072Z,22.54
2018-08-13T10:23:59.714Z,22.64
2018-08-13T10:26:28.352Z,22.71
2018-08-13T10:28:57.346Z,22.74
2018-08-13T10:31:26.826Z,22.73
2018-08-13T10:33:55.789Z,22.71
2018-08-13T10:36:24.804Z,22.70
2018-08-13T10:38:53.438Z,22.76
2018-08-13T10:41:22.686Z,22.82
2018-08-13T10:43:51.385Z,22.80
2018-08-13T10:46:20.699Z,22.80
2018-08-13T10:48:49.651Z,22.77
2018-08-13T10:51:19.048Z,22.78
2018-08-13T10:53:47.988Z,22.88
2018-08-13T10:56:17.409Z,23.15
2018-08-13T10:58:46.109Z,23.55
2018-08-13T11:01:15.400Z,23.74
2018-08-13T11:03:44.384Z,23.80
2018-08-13T11:06:20.485Z,23.79
2018-08-13T11:08:49.346Z,23.88
2018-08-13T11:11:18.095Z,23.96
2018-08-13T11:13:46.964Z,24.13
2018-08-13T11:16:15.641Z,24.22
2018-08-13T11:18:44.682Z,24.17
2018-08-13T11:21:13.735Z,24.08
2018-08-13T11:23:43.077Z,24.00
2018-08-13T11:26:11.753Z,23.91
2018-08-13T11:28:40.415Z,23.82
2018-08-13T11:31:09.636Z,23.72
2018-08-13T11:33:38.443Z,23.67
2018-08-13T11:36:07.625Z,23.63
2018-08-13T11:38:36.481Z,23.59
2018-08-13T11:41:05.151Z,23.52
2018-08-13T11:43:34.687Z,23.43
2018-08-13T11:46:03.456Z,23.35
2018-08-13T11:48:33.015Z,23.29
2018-08-13T11:51:01.873Z,23.23
2018-08-13T11:53:30.900Z,23.11
2018-08-13T11:56:00.427Z,23.04
2018-08-13T11:58:29.253Z,22.86
2018-08-13T12:01:04.321Z,22.76
2018-08-13T12:03:32.991Z,22.87
2018-08-13T12:06:02.352Z,22.97
2018-08-13T12:08:31.371Z,23.13
2018-08-13T12:11:00.301Z,23.35
2018-08-13T12:13:29.353Z,23.68
2018-08-13T12:15:57.978Z,23.92
2018-08-13T12:18:27.945Z,24.17
2018-08-13T12:20:56.554Z,24.22
2018-08-13T12:23:25.434Z,24.23
2018-08-13T12:25:54.912Z,24.14
2018-08-13T12:28:23.864Z,23.96
2018-08-13T12:30:52.514Z,23.79
2018-08-13T12:33:28.097Z,23.65
2018-08-13T12:35:56.910Z,23.46
2018-08-13T12:38:29.805Z,23.41
2018-08-13T12:40:58.421Z,23.43
2018-08-13T12:43:27.221Z,23.89
2018-08-13T12:45:56.108Z,24.61
2018-08-13T12:48:24.928Z,25.65
2018-08-13T12:50:53.585Z,26.73
2018-08-13T12:53:22.675Z,27.43
2018-08-13T12:55:51.509Z,26.78
2018-08-13T12:58:20.084Z,26.33
2018-08-13T13:01:19.834Z,26.75
2018-08-13T13:03:55.253Z,27.35
2018-08-13T13:06:24.539Z,27.64
2018-08-13T13:08:53.361Z,28.03
2018-08-13T13:11:22.487Z,28.39
2018-08-13T13:13:51.451Z,28.31
2018-08-13T13:16:20.109Z,27.75
2018-08-13T13:18:48.789Z,26.78
2018-08-13T13:21:17.835Z,26.19
2018-08-13T13:23:46.591Z,25.72
2018-08-13T13:26:15.506Z,24.97
2018-08-13T13:28:44.801Z,24.33
2018-08-13T13:31:14.458Z,23.83
2018-08-13T13:33:43.404Z,23.35
2018-08-13T13:36:12.299Z,23.18
2018-08-13T13:38:41.396Z,22.91
2018-08-13T13:41:10.248Z,22.32
2018-08-13T13:43:38.911Z,21.84
2018-08-13T13:46:08.158Z,21.60
2018-08-13T13:48:37.612Z,21.24
2018-08-13T13:51:06.237Z,21.24
2018-08-13T13:53:34.817Z,21.22
2018-08-13T13:56:03.633Z,21.28
2018-08-13T13:58:32.430Z,21.56
2018-08-13T14:01:01.153Z,21.85
2018-08-13T14:03:29.997Z,22.08
2018-08-13T14:06:05.571Z,22.46
2018-08-13T14:08:34.159Z,23.77
2018-08-13T14:11:02.768Z,24.13
2018-08-13T14:13:32.060Z,23.80
2018-08-13T14:16:01.277Z,23.50
2018-08-13T14:18:30.080Z,23.17
2018-08-13T14:20:58.668Z,22.97
2018-08-13T14:23:27.891Z,22.87
2018-08-13T14:25:56.695Z,22.78
2018-08-13T14:28:25.877Z,22.70
2018-08-13T14:30:54.861Z,22.67
2018-08-13T14:33:24.557Z,22.69
2018-08-13T14:35:53.304Z,22.78
2018-08-13T14:38:22.174Z,22.83
2018-08-13T14:40:51.016Z,22.89
2018-08-13T14:43:19.705Z,22.96
2018-08-13T14:45:48.540Z,22.80
2018-08-13T14:48:17.849Z,22.67
2018-08-13T14:50:46.510Z,22.53
2018-08-13T14:53:15.686Z,22.37
2018-08-13T14:55:44.471Z,22.19
2018-08-13T14:58:13.811Z,22.15
2018-08-13T15:00:42.475Z,22.07
2018-08-13T15:03:13.075Z,22.04
2018-08-13T15:05:42.380Z,22.03
2018-08-13T15:08:11.515Z,22.05
2018-08-13T15:10:40.350Z,22.10
2018-08-13T15:13:09.219Z,22.41
2018-08-13T15:15:37.825Z,23.98
2018-08-13T15:18:06.543Z,25.98
2018-08-13T15:20:35.553Z,28.06
2018-08-13T15:23:04.633Z,29.00
2018-08-13T15:25:33.368Z,29.25
2018-08-13T15:28:02.138Z,28.68
2018-08-13T15:30:31.341Z,27.97
2018-08-13T15:33:00.016Z,27.33
2018-08-13T15:35:29.511Z,26.61
2018-08-13T15:37:58.966Z,26.23
2018-08-13T15:40:28.195Z,26.91
2018-08-13T15:42:56.831Z,28.46
2018-08-13T15:45:26.033Z,29.18
2018-08-13T15:47:54.723Z,29.13
2018-08-13T15:50:24.118Z,28.56
2018-08-13T15:52:53.445Z,28.90
2018-08-13T15:55:22.997Z,29.68
2018-08-13T15:57:51.699Z,30.25
2018-08-13T16:00:24.390Z,30.35
2018-08-13T16:02:53.617Z,29.60
2018-08-13T16:05:22.748Z,28.36
2018-08-13T16:07:52.044Z,27.49
2018-08-13T16:10:20.733Z,26.90
2018-08-13T16:12:49.444Z,26.42
2018-08-13T16:15:18.281Z,26.15
2018-08-13T16:17:46.967Z,26.06
2018-08-13T16:20:17.658Z,26.76
2018-08-13T16:22:47.203Z,26.53
2018-08-13T16:25:16.564Z,26.34
2018-08-13T16:27:46.555Z,25.88
2018-08-13T16:30:23.061Z,25.53
2018-08-13T16:32:51.786Z,25.45
2018-08-13T16:35:21.131Z,25.50
2018-08-13T16:37:50.205Z,25.60
2018-08-13T16:40:19.445Z,25.46
2018-08-13T16:42:48.742Z,25.25
2018-08-13T16:45:19.060Z,24.97
2018-08-13T16:47:48.024Z,24.77
2018-08-13T16:50:22.673Z,24.58
2018-08-13T16:52:51.514Z,24.46
2018-08-13T16:55:20.260Z,24.38
2018-08-13T16:57:49.445Z,24.21
2018-08-13T17:00:22.178Z,24.00
2018-08-13T17:02:51.193Z,23.88
2018-08-13T17:05:20.332Z,23.76
2018-08-13T17:07:49.324Z,23.67
2018-08-13T17:10:20.746Z,23.52
2018-08-13T17:12:51.145Z,23.47
2018-08-13T17:15:20.199Z,23.50
2018-08-13T17:17:50.749Z,23.50
2018-08-13T17:20:26.048Z,23.44
2018-08-13T17:22:54.869Z,23.38
2018-08-13T17:25:24.020Z,23.34
2018-08-13T17:27:52.749Z,23.27
2018-08-13T17:30:23.552Z,23.13
2018-08-13T17:32:53.976Z,22.98
2018-08-13T17:35:25.550Z,22.84
2018-08-13T17:37:54.867Z,22.74
2018-08-13T17:40:24.563Z,22.65
2018-08-13T17:42:54.401Z,22.55
2018-08-13T17:45:24.367Z,22.51
2018-08-13T17:47:54.299Z,22.40
2018-08-13T17:50:23.577Z,22.34
2018-08-13T17:52:53.157Z,22.29
2018-08-13T17:55:22.455Z,22.29
2018-08-13T17:57:51.457Z,22.26
2018-08-13T18:00:22.850Z,22.22
2018-08-13T18:02:52.404Z,22.21
2018-08-13T18:05:23.345Z,22.18
2018-08-13T18:10:24.750Z,22.08
2018-08-13T18:12:53.740Z,22.02
2018-08-13T18:15:22.904Z,21.96
2018-08-13T18:17:52.050Z,21.88
2018-08-13T18:20:21.377Z,21.87
2018-08-13T18:22:50.518Z,21.84
2018-08-13T18:25:19.404Z,21.83
2018-08-13T18:27:49.496Z,21.77
2018-08-13T18:30:20.445Z,21.73
2018-08-13T18:32:49.956Z,21.68
2018-08-13T18:35:19.372Z,21.59
2018-08-13T18:37:48.804Z,21.54
2018-08-13T18:40:20.676Z,21.54
2018-08-13T18:42:49.904Z,21.50
2018-08-13T18:45:18.900Z,21.44
2018-08-13T18:47:48.303Z,21.41
2018-08-13T18:50:18.531Z,21.36
2018-08-13T18:52:47.709Z,21.33
2018-08-13T18:55:20.014Z,21.28
2018-08-13T18:57:49.260Z,21.26
2018-08-13T19:00:20.624Z,21.22
2018-08-13T19:02:49.560Z,21.18
2018-08-13T19:05:19.519Z,21.11
2018-08-13T19:07:48.557Z,21.06
2018-08-13T19:10:18.230Z,21.06
2018-08-13T19:12:47.478Z,20.99
2018-08-13T19:15:18.338Z,20.93
2018-08-13T19:17:47.122Z,20.90
2018-08-13T19:20:16.149Z,20.84
2018-08-13T19:22:45.177Z,20.81
2018-08-13T19:25:18.372Z,20.78
2018-08-13T19:27:47.275Z,20.76
2018-08-13T19:30:17.427Z,20.69
2018-08-13T19:32:47.343Z,20.63
2018-08-13T19:35:16.278Z,20.59
2018-08-13T19:37:45.868Z,20.56
2018-08-13T19:40:17.407Z,20.54
2018-08-13T19:42:47.609Z,20.51
2018-08-13T19:45:17.434Z,20.49
2018-08-13T19:47:46.527Z,20.48
2018-08-13T19:50:15.716Z,20.45
2018-08-13T19:52:45.408Z,20.43
2018-08-13T19:55:14.711Z,20.39
2018-08-13T19:57:43.365Z,20.37
2018-08-13T20:00:15.100Z,20.34
2018-08-13T20:02:44.592Z,20.32
2018-08-13T20:05:13.848Z,20.30
2018-08-13T20:07:43.088Z,20.29
2018-08-13T20:10:13.330Z,20.25
2018-08-13T20:12:42.704Z,20.20
2018-08-13T20:15:11.699Z,20.17
2018-08-13T20:17:40.916Z,20.15
2018-08-13T20:20:12.418Z,20.15
2018-08-13T20:22:41.139Z,20.12
2018-08-13T20:25:11.596Z,20.10
2018-08-13T20:27:40.800Z,20.03
2018-08-13T20:30:12.943Z,20.00
2018-08-13T20:32:41.964Z,19.98
2018-08-13T20:35:11.843Z,19.97
2018-08-13T20:37:40.798Z,19.94
2018-08-13T20:40:12.524Z,19.91
2018-08-13T20:42:42.089Z,19.87
2018-08-13T20:45:13.161Z,19.84
2018-08-13T20:47:44.343Z,19.83
2018-08-13T20:50:15.915Z,19.78
2018-08-13T20:52:46.360Z,19.73
2018-08-13T20:55:19.784Z,19.72
2018-08-13T20:57:49.316Z,19.69
2018-08-13T21:00:19.763Z,19.68
2018-08-13T21:02:48.985Z,19.63
2018-08-13T21:05:18.136Z,19.64
2018-08-13T21:07:48.257Z,19.65
2018-08-13T21:10:18.449Z,19.62
2018-08-13T21:12:47.424Z,19.59
2018-08-13T21:15:16.595Z,19.58
2018-08-13T21:17:45.691Z,19.57
2018-08-13T21:20:29.790Z,19.56
2018-08-13T21:22:58.567Z,19.48
2018-08-13T21:25:28.110Z,19.49
2018-08-13T21:27:56.721Z,19.48
2018-08-13T21:30:25.451Z,19.49
2018-08-13T21:33:00.663Z,19.47
2018-08-13T21:35:29.876Z,19.46
2018-08-13T21:37:58.825Z,19.46
2018-08-13T21:40:28.295Z,19.43
2018-08-13T21:42:57.127Z,19.42
2018-08-13T21:45:26.325Z,19.40
2018-08-13T21:47:54.952Z,19.36
2018-08-13T21:50:23.985Z,19.32
2018-08-13T21:52:53.063Z,19.32
2018-08-13T21:55:22.476Z,19.28
2018-08-13T21:57:51.075Z,19.27
2018-08-13T22:00:27.173Z,19.27
2018-08-13T22:02:56.766Z,19.22
2018-08-13T22:05:25.702Z,19.19
2018-08-13T22:07:54.239Z,19.18
2018-08-13T22:10:23.669Z,19.20
2018-08-13T22:12:52.407Z,19.21
2018-08-13T22:15:27.584Z,19.24
2018-08-13T22:17:58.040Z,19.25
2018-08-13T22:20:26.973Z,19.30
2018-08-13T22:22:56.825Z,19.33
2018-08-13T22:25:32.092Z,19.31
2018-08-13T22:28:01.087Z,19.28
2018-08-13T22:30:31.505Z,19.27
2018-08-13T22:33:00.338Z,19.25
2018-08-13T22:35:28.902Z,19.27
2018-08-13T22:37:57.639Z,19.29
2018-08-13T22:40:26.470Z,19.28
2018-08-13T22:42:55.111Z,19.27
2018-08-13T22:45:24.552Z,19.23
2018-08-13T22:47:53.474Z,19.23
2018-08-13T22:50:22.033Z,19.20
2018-08-13T22:52:50.969Z,19.19
2018-08-13T22:55:19.715Z,19.19
2018-08-13T22:57:49.093Z,19.21
2018-08-13T23:00:18.891Z,19.23
2018-08-13T23:02:48.412Z,19.22
2018-08-13T23:05:22.265Z,19.19
2018-08-13T23:07:51.047Z,19.17
2018-08-13T23:10:21.068Z,19.15
2018-08-13T23:12:51.330Z,19.13
2018-08-13T23:15:20.344Z,19.11
2018-08-13T23:17:49.197Z,19.09
2018-08-13T23:20:19.946Z,19.08
2018-08-13T23:22:51.567Z,19.03
2018-08-13T23:25:20.667Z,19.03
2018-08-13T23:27:50.619Z,19.02
2018-08-13T23:30:19.470Z,18.99
2018-08-13T23:32:49.470Z,18.98
2018-08-13T23:35:19.092Z,18.96
2018-08-13T23:37:47.758Z,18.98
2018-08-13T23:40:17.083Z,18.97
2018-08-13T23:42:45.865Z,18.96
2018-08-13T23:45:16.131Z,18.99
2018-08-13T23:47:44.891Z,19.01
2018-08-13T23:50:18.276Z,19.01
2018-08-13T23:52:47.670Z,19.00
2018-08-13T23:55:19.145Z,19.01
2018-08-13T23:57:48.036Z,19.01
